createdAt,value
2023-05-08T00:04:44.047Z,0.04
2023-05-08T00:09:43.427Z,0.04
2023-05-08T00:14:44.553Z,0.04
2023-05-08T00:19:31.188Z,0.04
2023-05-08T00:24:31.121Z,0.04
2023-05-08T00:29:30.680Z,0.04
2023-05-08T00:34:28.304Z,0.04
2023-05-08T00:39:28.098Z,0.04
2023-05-08T00:44:28.243Z,0.04
2023-05-08T00:49:27.846Z,0.04
2023-05-08T00:54:27.139Z,0.04
2023-05-08T00:59:26.874Z,0.04
2023-05-08T01:04:27.366Z,0.04
2023-05-08T01:09:26.677Z,0.04
2023-05-08T02:01:05.924Z,0.04
2023-05-08T02:05:38.866Z,0.04
2023-05-08T02:15:46.795Z,0.04
2023-05-08T02:20:47.362Z,0.03
2023-05-08T02:25:47.414Z,0.04
2023-05-08T02:30:46.617Z,0.04
2023-05-08T02:35:46.484Z,0.04
2023-05-08T02:40:46.986Z,0.04
2023-05-08T02:45:46.898Z,0.04
2023-05-08T02:50:44.299Z,0.03
2023-05-08T02:55:43.851Z,0.04
2023-05-08T03:59:45.155Z,0.09
2023-05-08T04:04:45.925Z,0.11
2023-05-08T04:09:43.038Z,0.14
2023-05-08T04:14:42.813Z,0.2
2023-05-08T04:19:44.092Z,0.24
2023-05-08T04:24:30.729Z,0.27
2023-05-08T04:29:31.006Z,0.27
2023-05-08T04:34:29.692Z,0.35
2023-05-08T04:39:31.068Z,0.39
2023-05-08T04:44:27.267Z,0.45
2023-05-08T04:49:26.786Z,0.62
2023-05-08T04:54:27.237Z,0.72
2023-05-08T06:01:09.207Z,1.32
2023-05-08T06:05:40.036Z,1.54
2023-05-08T06:10:39.874Z,1.27
2023-05-08T06:15:39.378Z,1.22
2023-05-08T06:20:39.432Z,1
2023-05-08T06:25:47.431Z,0.94
2023-05-08T06:30:46.770Z,1.01
2023-05-08T06:40:54.497Z,1.87
2023-05-08T06:45:46.248Z,2.06
2023-05-08T06:50:46.330Z,2.73
2023-05-08T06:55:44.970Z,3.88
2023-05-08T07:04:56.721Z,5.32
2023-05-08T07:09:57.010Z,5.24
2023-05-08T07:14:54.711Z,3.87
2023-05-08T07:19:54.852Z,3.58
2023-05-08T07:24:53.423Z,3.74
2023-05-08T07:29:53.477Z,4.66
2023-05-08T07:34:52.085Z,4.82
2023-05-08T07:39:52.969Z,4.68
2023-05-08T07:45:05.167Z,4.95
2023-05-08T07:49:51.318Z,4.69
2023-05-08T07:54:52.673Z,4.07
2023-05-08T08:04:47.789Z,5.04
2023-05-08T08:09:46.570Z,5.34
2023-05-08T08:14:44.570Z,5.37
2023-05-08T08:19:43.760Z,5.39
2023-05-08T08:24:44.309Z,5.69
2023-05-08T08:29:42.774Z,5.48
2023-05-08T08:34:43.053Z,5
2023-05-08T08:39:45.346Z,6.21
2023-05-08T08:44:30.275Z,7.09
2023-05-08T08:49:30.142Z,7.7
2023-05-08T08:54:30.060Z,6.82
2023-05-08T08:59:30.102Z,5.41
2023-05-08T09:14:28.959Z,3.39
2023-05-08T09:19:29.314Z,3.95
2023-05-08T09:29:26.118Z,5.41
2023-05-08T09:34:26.137Z,7.21
2023-05-08T09:44:25.452Z,9.28
2023-05-08T09:49:24.153Z,7.84
2023-05-08T10:24:19.925Z,4.11
2023-05-08T11:01:02.051Z,4.94
2023-05-08T11:05:46.175Z,4.96
2023-05-08T11:10:46.191Z,4.71
2023-05-08T11:15:47.830Z,3.98
2023-05-08T11:20:44.743Z,4.12
2023-05-08T11:25:44.395Z,5.69
2023-05-08T11:30:44.419Z,7.09
2023-05-08T11:35:43.615Z,7.93
2023-05-08T11:40:43.739Z,8.76
2023-05-08T11:45:43.302Z,9.39
2023-05-08T11:50:43.765Z,10.56
2023-05-08T11:55:42.381Z,10.32
2023-05-08T12:00:03.076Z,9.92
2023-05-08T12:05:03.749Z,9.96
2023-05-08T12:10:01.069Z,9.91
2023-05-08T12:15:00.644Z,8.45
2023-05-08T12:20:00.084Z,10.08
2023-05-08T12:24:59.492Z,10.28
2023-05-08T12:29:58.952Z,9.25
2023-05-08T12:34:59.037Z,9.63
2023-05-08T12:39:58.971Z,9.48
2023-05-08T12:44:58.762Z,8.69
2023-05-08T12:49:59.761Z,10.64
2023-05-08T12:54:56.523Z,9.94
2023-05-08T13:04:12.199Z,12.21
2023-05-08T13:09:01.748Z,12.63
2023-05-08T13:13:59.433Z,12.68
2023-05-08T13:18:59.421Z,12.92
2023-05-08T13:23:59.599Z,10.06
2023-05-08T13:28:59.921Z,10.3
2023-05-08T13:33:56.537Z,8.99
2023-05-08T13:38:56.588Z,9.34
2023-05-08T13:43:56.386Z,9.87
2023-05-08T13:48:55.827Z,11.34
2023-05-08T13:53:53.350Z,12.11
2023-05-08T13:58:53.150Z,11.81
2023-05-08T14:00:43.609Z,11.81
2023-05-08T14:50:19.832Z,11.64
2023-05-08T14:55:07.966Z,11.36
2023-05-08T15:00:06.280Z,12.82
2023-05-08T15:04:58.398Z,11.81
2023-05-08T15:09:59.611Z,11.56
2023-05-08T15:19:55.354Z,10.49
2023-05-08T15:24:54.463Z,14.36
2023-05-08T15:29:54.332Z,9.85
2023-05-08T15:34:51.892Z,7.94
2023-05-08T15:39:51.728Z,6.71
2023-05-08T15:44:55.097Z,6.95
2023-05-08T15:49:50.558Z,6.58
2023-05-08T15:54:49.742Z,5.64
2023-05-08T16:04:46.453Z,5.36
2023-05-08T16:09:47.516Z,3.64
2023-05-08T16:14:44.445Z,3.2
2023-05-08T16:19:44.990Z,2.8
2023-05-08T16:24:44.125Z,3.34
2023-05-08T16:29:39.459Z,3.55
2023-05-08T16:34:31.101Z,3.41
2023-05-08T16:39:32.339Z,3.59
2023-05-08T16:44:28.651Z,3.59
2023-05-08T16:49:28.530Z,3.38
2023-05-08T16:54:29.773Z,3.21
2023-05-08T16:59:27.585Z,3.14
2023-05-08T17:04:25.118Z,3.03
2023-05-08T17:09:24.937Z,2.76
2023-05-08T17:14:25.133Z,2.51
2023-05-08T17:19:24.619Z,2.32
2023-05-08T17:24:24.111Z,2.2
2023-05-08T17:29:23.538Z,2.16
2023-05-08T17:34:23.738Z,2
2023-05-08T17:39:23.204Z,1.61
2023-05-08T17:44:24.021Z,1.4
2023-05-08T17:49:20.461Z,1.23
2023-05-08T17:54:20.454Z,1.01
2023-05-08T18:39:13.190Z,0.27
2023-05-08T19:00:57.026Z,0.09
2023-05-08T19:05:29.907Z,0.07
2023-05-08T19:10:29.767Z,0.05
2023-05-08T19:15:29.741Z,0.05
2023-05-08T19:20:29.416Z,0.04
2023-05-08T19:25:28.605Z,0.04
2023-05-08T19:30:28.429Z,0.04
2023-05-08T19:35:28.385Z,0.04
2023-05-08T19:40:28.112Z,0.04
2023-05-08T19:45:28.981Z,0.04
2023-05-08T19:50:25.538Z,0.04
2023-05-08T19:55:25.004Z,0.04
2023-05-08T19:59:56.204Z,0.04
2023-05-08T20:05:18.490Z,0.04
2023-05-08T20:09:55.469Z,0.04
2023-05-08T20:14:55.077Z,0.04
2023-05-08T20:19:54.801Z,0.04
2023-05-08T20:24:55.775Z,0.04
2023-05-08T20:29:52.193Z,0.03
2023-05-08T20:34:52.251Z,0.04
2023-05-08T20:39:51.432Z,0.04
2023-05-08T20:44:51.303Z,0.04
2023-05-08T20:49:48.900Z,0.04
2023-05-08T20:54:48.492Z,0.04
2023-05-08T20:59:45.770Z,0.04
2023-05-08T21:04:46.907Z,0.04
2023-05-08T21:09:44.129Z,0.04
2023-05-08T21:14:43.488Z,0.04
2023-05-08T21:19:43.717Z,0.04
2023-05-08T21:24:31.269Z,0.04
2023-05-08T21:29:30.817Z,0.04
2023-05-08T21:34:30.779Z,0.04
2023-05-08T21:39:31.917Z,0.04
2023-05-08T21:44:28.547Z,0.04
2023-05-08T21:49:28.094Z,0.04
2023-05-08T21:54:27.515Z,0.04
2023-05-08T21:59:27.166Z,0.04
2023-05-08T22:04:24.904Z,0.04
2023-05-08T22:09:24.592Z,0.04
2023-05-08T22:14:23.610Z,0.04
2023-05-08T22:19:23.555Z,0.04
2023-05-08T22:24:22.633Z,0.04
2023-05-08T22:29:22.649Z,0.04
2023-05-08T22:34:22.393Z,0.04
2023-05-08T22:39:22.257Z,0.04
